sensor_id;sensor_type;location;lat;lon;timestamp;P1;durP1;ratioP1;P2;durP2;ratioP2
7965;SDS011;4028;43.272;26.932;2023-09-19T00:02:17;6.13;;;5.60;;
7965;SDS011;4028;43.272;26.932;2023-09-19T00:04:43;6.37;;;5.67;;
7965;SDS011;4028;43.272;26.932;2023-09-19T00:07:09;6.90;;;5.60;;
7965;SDS011;4028;43.272;26.932;2023-09-19T00:09:35;6.33;;;5.73;;
7965;SDS011;4028;43.272;26.932;2023-09-19T00:12:06;6.57;;;6.03;;
7965;SDS011;4028;43.272;26.932;2023-09-19T00:14:34;6.20;;;5.57;;
7965;SDS011;4028;43.272;26.932;2023-09-19T00:17:01;6.70;;;5.97;;
7965;SDS011;4028;43.272;26.932;2023-09-19T00:19:33;6.40;;;5.73;;
7965;SDS011;4028;43.272;26.932;2023-09-19T00:22:02;5.93;;;5.33;;
7965;SDS011;4028;43.272;26.932;2023-09-19T00:24:28;6.73;;;6.17;;
7965;SDS011;4028;43.272;26.932;2023-09-19T00:26:53;7.70;;;6.37;;
7965;SDS011;4028;43.272;26.932;2023-09-19T00:29:20;6.03;;;5.53;;
7965;SDS011;4028;43.272;26.932;2023-09-19T00:31:46;6.77;;;6.03;;
7965;SDS011;4028;43.272;26.932;2023-09-19T00:34:12;8.27;;;6.47;;
7965;SDS011;4028;43.272;26.932;2023-09-19T00:36:37;6.80;;;6.10;;
7965;SDS011;4028;43.272;26.932;2023-09-19T00:39:08;8.60;;;5.53;;
7965;SDS011;4028;43.272;26.932;2023-09-19T00:41:33;8.20;;;5.80;;
7965;SDS011;4028;43.272;26.932;2023-09-19T00:44:03;8.20;;;6.60;;
7965;SDS011;4028;43.272;26.932;2023-09-19T00:46:30;7.37;;;6.47;;
7965;SDS011;4028;43.272;26.932;2023-09-19T00:48:57;6.80;;;6.07;;
7965;SDS011;4028;43.272;26.932;2023-09-19T00:51:23;7.83;;;6.70;;
7965;SDS011;4028;43.272;26.932;2023-09-19T00:53:50;7.20;;;6.60;;
7965;SDS011;4028;43.272;26.932;2023-09-19T00:56:17;9.70;;;7.07;;
7965;SDS011;4028;43.272;26.932;2023-09-19T00:58:47;6.63;;;6.03;;
7965;SDS011;4028;43.272;26.932;2023-09-19T01:01:13;7.47;;;6.70;;
7965;SDS011;4028;43.272;26.932;2023-09-19T01:03:40;8.03;;;5.97;;
7965;SDS011;4028;43.272;26.932;2023-09-19T01:06:07;6.83;;;6.00;;
7965;SDS011;4028;43.272;26.932;2023-09-19T01:08:35;7.40;;;6.63;;
7965;SDS011;4028;43.272;26.932;2023-09-19T01:21:58;7.03;;;6.13;;
7965;SDS011;4028;43.272;26.932;2023-09-19T01:24:34;6.97;;;6.27;;
7965;SDS011;4028;43.272;26.932;2023-09-19T01:30:13;6.60;;;6.00;;
7965;SDS011;4028;43.272;26.932;2023-09-19T01:32:39;6.50;;;5.90;;
7965;SDS011;4028;43.272;26.932;2023-09-19T01:35:06;8.63;;;6.33;;
7965;SDS011;4028;43.272;26.932;2023-09-19T01:37:37;7.83;;;6.00;;
7965;SDS011;4028;43.272;26.932;2023-09-19T01:40:09;9.00;;;6.63;;
7965;SDS011;4028;43.272;26.932;2023-09-19T01:42:55;7.00;;;6.40;;
7965;SDS011;4028;43.272;26.932;2023-09-19T01:51:11;6.80;;;6.17;;
7965;SDS011;4028;43.272;26.932;2023-09-19T01:53:51;7.20;;;6.53;;
7965;SDS011;4028;43.272;26.932;2023-09-19T01:56:32;7.30;;;6.60;;
7965;SDS011;4028;43.272;26.932;2023-09-19T01:59:16;8.07;;;6.27;;
7965;SDS011;4028;43.272;26.932;2023-09-19T02:01:46;11.43;;;7.30;;
7965;SDS011;4028;43.272;26.932;2023-09-19T02:04:14;7.33;;;6.63;;
7965;SDS011;4028;43.272;26.932;2023-09-19T02:06:40;8.87;;;5.97;;
7965;SDS011;4028;43.272;26.932;2023-09-19T02:09:07;9.53;;;7.07;;
7965;SDS011;4028;43.272;26.932;2023-09-19T02:11:33;7.47;;;6.73;;
7965;SDS011;4028;43.272;26.932;2023-09-19T02:13:59;8.27;;;7.33;;
7965;SDS011;4028;43.272;26.932;2023-09-19T02:16:25;9.07;;;7.20;;
7965;SDS011;4028;43.272;26.932;2023-09-19T02:18:50;7.60;;;6.80;;
7965;SDS011;4028;43.272;26.932;2023-09-19T02:21:16;7.90;;;7.20;;
7965;SDS011;4028;43.272;26.932;2023-09-19T02:23:43;6.93;;;6.23;;
7965;SDS011;4028;43.272;26.932;2023-09-19T02:26:09;8.50;;;6.80;;
7965;SDS011;4028;43.272;26.932;2023-09-19T02:28:36;8.47;;;6.77;;
7965;SDS011;4028;43.272;26.932;2023-09-19T02:31:02;11.60;;;6.93;;
7965;SDS011;4028;43.272;26.932;2023-09-19T02:33:30;10.27;;;6.70;;
7965;SDS011;4028;43.272;26.932;2023-09-19T02:35:57;8.53;;;6.57;;
7965;SDS011;4028;43.272;26.932;2023-09-19T02:38:24;9.37;;;7.10;;
7965;SDS011;4028;43.272;26.932;2023-09-19T02:40:54;9.00;;;7.00;;
7965;SDS011;4028;43.272;26.932;2023-09-19T02:43:22;7.30;;;6.60;;
7965;SDS011;4028;43.272;26.932;2023-09-19T02:45:48;8.53;;;7.07;;
7965;SDS011;4028;43.272;26.932;2023-09-19T02:48:20;8.13;;;7.33;;
7965;SDS011;4028;43.272;26.932;2023-09-19T02:50:46;10.93;;;7.90;;
7965;SDS011;4028;43.272;26.932;2023-09-19T02:53:15;9.43;;;7.13;;
7965;SDS011;4028;43.272;26.932;2023-09-19T02:55:40;9.90;;;8.33;;
7965;SDS011;4028;43.272;26.932;2023-09-19T02:58:06;10.80;;;8.20;;
7965;SDS011;4028;43.272;26.932;2023-09-19T03:00:39;10.57;;;8.80;;
7965;SDS011;4028;43.272;26.932;2023-09-19T03:03:07;12.57;;;9.43;;
7965;SDS011;4028;43.272;26.932;2023-09-19T03:05:33;9.37;;;8.07;;
7965;SDS011;4028;43.272;26.932;2023-09-19T03:07:59;10.07;;;8.60;;
7965;SDS011;4028;43.272;26.932;2023-09-19T03:10:29;9.97;;;8.93;;
7965;SDS011;4028;43.272;26.932;2023-09-19T03:12:56;13.30;;;8.83;;
7965;SDS011;4028;43.272;26.932;2023-09-19T03:15:24;14.23;;;9.67;;
7965;SDS011;4028;43.272;26.932;2023-09-19T03:17:50;11.90;;;9.23;;
7965;SDS011;4028;43.272;26.932;2023-09-19T03:20:18;12.30;;;9.40;;
7965;SDS011;4028;43.272;26.932;2023-09-19T03:22:46;10.53;;;9.60;;
7965;SDS011;4028;43.272;26.932;2023-09-19T03:25:11;10.30;;;8.80;;
7965;SDS011;4028;43.272;26.932;2023-09-19T03:27:38;10.83;;;9.73;;
7965;SDS011;4028;43.272;26.932;2023-09-19T03:30:04;10.53;;;9.53;;
7965;SDS011;4028;43.272;26.932;2023-09-19T03:32:34;10.30;;;9.30;;
7965;SDS011;4028;43.272;26.932;2023-09-19T03:35:01;11.20;;;9.37;;
7965;SDS011;4028;43.272;26.932;2023-09-19T03:37:26;10.93;;;9.13;;
7965;SDS011;4028;43.272;26.932;2023-09-19T03:39:52;12.17;;;10.03;;
7965;SDS011;4028;43.272;26.932;2023-09-19T03:42:17;13.30;;;9.13;;
7965;SDS011;4028;43.272;26.932;2023-09-19T03:44:50;12.67;;;9.57;;
7965;SDS011;4028;43.272;26.932;2023-09-19T03:47:17;11.03;;;9.90;;
7965;SDS011;4028;43.272;26.932;2023-09-19T03:49:44;15.00;;;10.00;;
7965;SDS011;4028;43.272;26.932;2023-09-19T03:52:09;14.57;;;10.30;;
7965;SDS011;4028;43.272;26.932;2023-09-19T03:54:35;14.20;;;10.13;;
7965;SDS011;4028;43.272;26.932;2023-09-19T03:57:00;11.73;;;10.23;;
7965;SDS011;4028;43.272;26.932;2023-09-19T03:59:26;15.00;;;9.67;;
7965;SDS011;4028;43.272;26.932;2023-09-19T04:01:52;15.37;;;9.00;;
7965;SDS011;4028;43.272;26.932;2023-09-19T04:04:21;11.70;;;9.13;;
7965;SDS011;4028;43.272;26.932;2023-09-19T04:06:46;13.97;;;8.60;;
7965;SDS011;4028;43.272;26.932;2023-09-19T04:09:11;11.20;;;8.37;;
7965;SDS011;4028;43.272;26.932;2023-09-19T04:11:38;9.20;;;6.97;;
7965;SDS011;4028;43.272;26.932;2023-09-19T04:14:03;11.43;;;7.30;;
7965;SDS011;4028;43.272;26.932;2023-09-19T04:16:29;7.73;;;7.03;;
7965;SDS011;4028;43.272;26.932;2023-09-19T04:18:55;13.17;;;9.67;;
7965;SDS011;4028;43.272;26.932;2023-09-19T04:21:20;13.03;;;10.33;;
7965;SDS011;4028;43.272;26.932;2023-09-19T04:23:46;12.27;;;9.93;;
7965;SDS011;4028;43.272;26.932;2023-09-19T04:26:11;11.40;;;8.53;;
7965;SDS011;4028;43.272;26.932;2023-09-19T04:28:37;9.97;;;7.17;;
7965;SDS011;4028;43.272;26.932;2023-09-19T04:31:03;10.60;;;7.40;;
7965;SDS011;4028;43.272;26.932;2023-09-19T04:33:29;19.80;;;8.27;;
7965;SDS011;4028;43.272;26.932;2023-09-19T04:35:55;10.63;;;7.53;;
7965;SDS011;4028;43.272;26.932;2023-09-19T04:38:21;10.80;;;7.53;;
7965;SDS011;4028;43.272;26.932;2023-09-19T04:40:47;10.37;;;7.73;;
7965;SDS011;4028;43.272;26.932;2023-09-19T04:43:12;10.63;;;7.33;;
7965;SDS011;4028;43.272;26.932;2023-09-19T04:45:38;12.43;;;7.70;;
7965;SDS011;4028;43.272;26.932;2023-09-19T04:48:05;14.10;;;8.13;;
7965;SDS011;4028;43.272;26.932;2023-09-19T04:50:34;12.97;;;8.40;;
7965;SDS011;4028;43.272;26.932;2023-09-19T04:52:59;10.77;;;7.80;;
7965;SDS011;4028;43.272;26.932;2023-09-19T04:55:26;10.43;;;7.67;;
7965;SDS011;4028;43.272;26.932;2023-09-19T04:57:52;15.03;;;8.50;;
7965;SDS011;4028;43.272;26.932;2023-09-19T05:00:18;10.10;;;8.73;;
7965;SDS011;4028;43.272;26.932;2023-09-19T05:02:51;10.60;;;8.50;;
7965;SDS011;4028;43.272;26.932;2023-09-19T05:05:17;11.07;;;9.07;;
7965;SDS011;4028;43.272;26.932;2023-09-19T05:07:44;15.27;;;8.47;;
7965;SDS011;4028;43.272;26.932;2023-09-19T05:10:10;14.13;;;8.50;;
7965;SDS011;4028;43.272;26.932;2023-09-19T05:12:37;16.50;;;9.23;;
7965;SDS011;4028;43.272;26.932;2023-09-19T05:15:03;13.90;;;9.00;;
7965;SDS011;4028;43.272;26.932;2023-09-19T05:17:29;12.50;;;9.00;;
7965;SDS011;4028;43.272;26.932;2023-09-19T05:19:55;16.60;;;9.23;;
7965;SDS011;4028;43.272;26.932;2023-09-19T05:22:20;18.67;;;10.43;;
7965;SDS011;4028;43.272;26.932;2023-09-19T05:24:46;14.67;;;9.93;;
7965;SDS011;4028;43.272;26.932;2023-09-19T05:27:14;16.37;;;10.57;;
7965;SDS011;4028;43.272;26.932;2023-09-19T05:29:42;16.93;;;11.17;;
7965;SDS011;4028;43.272;26.932;2023-09-19T05:32:09;16.30;;;10.27;;
7965;SDS011;4028;43.272;26.932;2023-09-19T05:34:35;20.90;;;11.00;;
7965;SDS011;4028;43.272;26.932;2023-09-19T05:37:01;20.30;;;11.93;;
7965;SDS011;4028;43.272;26.932;2023-09-19T05:39:27;20.83;;;11.63;;
7965;SDS011;4028;43.272;26.932;2023-09-19T05:41:52;15.13;;;10.97;;
7965;SDS011;4028;43.272;26.932;2023-09-19T05:44:18;24.27;;;11.73;;
7965;SDS011;4028;43.272;26.932;2023-09-19T05:46:43;22.27;;;12.57;;
7965;SDS011;4028;43.272;26.932;2023-09-19T05:49:10;21.23;;;11.40;;
7965;SDS011;4028;43.272;26.932;2023-09-19T05:51:36;17.67;;;12.27;;
7965;SDS011;4028;43.272;26.932;2023-09-19T05:54:01;21.70;;;11.50;;
7965;SDS011;4028;43.272;26.932;2023-09-19T05:56:27;25.00;;;11.60;;
7965;SDS011;4028;43.272;26.932;2023-09-19T05:58:52;20.43;;;10.77;;
7965;SDS011;4028;43.272;26.932;2023-09-19T06:01:18;17.03;;;10.33;;
7965;SDS011;4028;43.272;26.932;2023-09-19T06:03:44;15.77;;;10.82;;
7965;SDS011;4028;43.272;26.932;2023-09-19T06:06:09;15.52;;;10.43;;
7965;SDS011;4028;43.272;26.932;2023-09-19T06:08:35;15.52;;;10.50;;
7965;SDS011;4028;43.272;26.932;2023-09-19T06:11:00;15.38;;;10.95;;
7965;SDS011;4028;43.272;26.932;2023-09-19T06:13:29;14.25;;;9.73;;
7965;SDS011;4028;43.272;26.932;2023-09-19T06:15:55;14.45;;;9.70;;
7965;SDS011;4028;43.272;26.932;2023-09-19T06:18:25;15.65;;;9.13;;
7965;SDS011;4028;43.272;26.932;2023-09-19T06:20:51;17.75;;;9.30;;
7965;SDS011;4028;43.272;26.932;2023-09-19T06:23:17;14.93;;;8.75;;
7965;SDS011;4028;43.272;26.932;2023-09-19T06:25:45;13.43;;;9.68;;
7965;SDS011;4028;43.272;26.932;2023-09-19T06:28:10;14.52;;;9.93;;
7965;SDS011;4028;43.272;26.932;2023-09-19T06:30:39;15.10;;;8.98;;
7965;SDS011;4028;43.272;26.932;2023-09-19T06:33:05;17.17;;;9.18;;
7965;SDS011;4028;43.272;26.932;2023-09-19T06:35:32;17.77;;;9.65;;
7965;SDS011;4028;43.272;26.932;2023-09-19T06:37:58;12.38;;;8.10;;
7965;SDS011;4028;43.272;26.932;2023-09-19T06:40:28;11.52;;;7.70;;
7965;SDS011;4028;43.272;26.932;2023-09-19T06:42:53;14.68;;;8.48;;
7965;SDS011;4028;43.272;26.932;2023-09-19T06:45:21;15.60;;;7.63;;
7965;SDS011;4028;43.272;26.932;2023-09-19T06:47:47;12.65;;;7.40;;
7965;SDS011;4028;43.272;26.932;2023-09-19T06:50:15;12.45;;;7.70;;
7965;SDS011;4028;43.272;26.932;2023-09-19T06:52:44;11.15;;;7.72;;
7965;SDS011;4028;43.272;26.932;2023-09-19T06:55:14;8.48;;;7.25;;
7965;SDS011;4028;43.272;26.932;2023-09-19T06:57:41;8.10;;;7.30;;
7965;SDS011;4028;43.272;26.932;2023-09-19T07:00:08;8.73;;;6.78;;
7965;SDS011;4028;43.272;26.932;2023-09-19T07:02:41;7.15;;;6.50;;
7965;SDS011;4028;43.272;26.932;2023-09-19T07:05:07;9.27;;;6.72;;
7965;SDS011;4028;43.272;26.932;2023-09-19T07:07:32;8.95;;;6.10;;
7965;SDS011;4028;43.272;26.932;2023-09-19T07:10:00;7.85;;;5.50;;
7965;SDS011;4028;43.272;26.932;2023-09-19T07:12:33;6.97;;;6.20;;
7965;SDS011;4028;43.272;26.932;2023-09-19T07:14:58;6.82;;;6.13;;
7965;SDS011;4028;43.272;26.932;2023-09-19T07:17:24;7.95;;;5.80;;
7965;SDS011;4028;43.272;26.932;2023-09-19T07:19:49;7.03;;;5.55;;
7965;SDS011;4028;43.272;26.932;2023-09-19T07:22:15;7.35;;;5.57;;
7965;SDS011;4028;43.272;26.932;2023-09-19T07:24:41;6.53;;;5.10;;
7965;SDS011;4028;43.272;26.932;2023-09-19T07:27:06;6.30;;;5.32;;
7965;SDS011;4028;43.272;26.932;2023-09-19T07:29:32;5.75;;;5.20;;
7965;SDS011;4028;43.272;26.932;2023-09-19T07:31:57;9.07;;;5.07;;
7965;SDS011;4028;43.272;26.932;2023-09-19T07:34:23;9.27;;;6.00;;
7965;SDS011;4028;43.272;26.932;2023-09-19T07:36:49;6.63;;;5.45;;
7965;SDS011;4028;43.272;26.932;2023-09-19T07:39:15;6.07;;;5.53;;
7965;SDS011;4028;43.272;26.932;2023-09-19T07:41:40;5.57;;;5.07;;
7965;SDS011;4028;43.272;26.932;2023-09-19T07:44:07;5.50;;;5.03;;
7965;SDS011;4028;43.272;26.932;2023-09-19T07:46:34;6.25;;;4.80;;
7965;SDS011;4028;43.272;26.932;2023-09-19T07:49:00;10.88;;;5.78;;
7965;SDS011;4028;43.272;26.932;2023-09-19T07:51:25;7.82;;;5.25;;
7965;SDS011;4028;43.272;26.932;2023-09-19T07:53:52;7.65;;;5.50;;
7965;SDS011;4028;43.272;26.932;2023-09-19T07:56:17;7.20;;;5.32;;
7965;SDS011;4028;43.272;26.932;2023-09-19T07:58:45;7.80;;;5.45;;
7965;SDS011;4028;43.272;26.932;2023-09-19T08:01:10;7.25;;;5.47;;
7965;SDS011;4028;43.272;26.932;2023-09-19T08:03:38;5.70;;;5.07;;
7965;SDS011;4028;43.272;26.932;2023-09-19T08:06:06;7.35;;;5.40;;
7965;SDS011;4028;43.272;26.932;2023-09-19T08:08:32;7.30;;;4.75;;
7965;SDS011;4028;43.272;26.932;2023-09-19T08:11:05;7.88;;;5.28;;
7965;SDS011;4028;43.272;26.932;2023-09-19T08:13:40;5.20;;;4.80;;
7965;SDS011;4028;43.272;26.932;2023-09-19T08:16:12;5.30;;;4.80;;
7965;SDS011;4028;43.272;26.932;2023-09-19T08:18:40;5.70;;;5.10;;
7965;SDS011;4028;43.272;26.932;2023-09-19T08:21:06;5.80;;;5.03;;
7965;SDS011;4028;43.272;26.932;2023-09-19T08:23:39;6.75;;;4.80;;
7965;SDS011;4028;43.272;26.932;2023-09-19T08:26:05;5.35;;;4.65;;
7965;SDS011;4028;43.272;26.932;2023-09-19T08:28:34;6.15;;;4.90;;
7965;SDS011;4028;43.272;26.932;2023-09-19T08:31:04;5.20;;;4.70;;
7965;SDS011;4028;43.272;26.932;2023-09-19T08:33:33;5.45;;;4.82;;
7965;SDS011;4028;43.272;26.932;2023-09-19T08:36:00;5.43;;;4.93;;
7965;SDS011;4028;43.272;26.932;2023-09-19T08:38:30;8.02;;;4.68;;
7965;SDS011;4028;43.272;26.932;2023-09-19T08:40:58;6.85;;;4.55;;
7965;SDS011;4028;43.272;26.932;2023-09-19T08:43:24;5.35;;;4.85;;
7965;SDS011;4028;43.272;26.932;2023-09-19T08:45:52;9.30;;;5.10;;
7965;SDS011;4028;43.272;26.932;2023-09-19T08:48:24;5.18;;;4.55;;
7965;SDS011;4028;43.272;26.932;2023-09-19T08:50:56;7.70;;;4.78;;
7965;SDS011;4028;43.272;26.932;2023-09-19T08:56:16;6.28;;;4.72;;
7965;SDS011;4028;43.272;26.932;2023-09-19T08:58:50;8.45;;;4.88;;
7965;SDS011;4028;43.272;26.932;2023-09-19T09:01:23;4.93;;;4.53;;
7965;SDS011;4028;43.272;26.932;2023-09-19T09:03:53;6.10;;;4.65;;
7965;SDS011;4028;43.272;26.932;2023-09-19T09:06:20;7.72;;;4.72;;
7965;SDS011;4028;43.272;26.932;2023-09-19T09:08:46;6.63;;;5.25;;
7965;SDS011;4028;43.272;26.932;2023-09-19T09:11:15;5.65;;;5.15;;
7965;SDS011;4028;43.272;26.932;2023-09-19T09:13:43;4.50;;;4.10;;
7965;SDS011;4028;43.272;26.932;2023-09-19T09:16:09;4.50;;;4.10;;
7965;SDS011;4028;43.272;26.932;2023-09-19T09:18:36;4.75;;;4.35;;
7965;SDS011;4028;43.272;26.932;2023-09-19T09:21:02;5.28;;;4.03;;
7965;SDS011;4028;43.272;26.932;2023-09-19T09:23:29;5.40;;;4.32;;
7965;SDS011;4028;43.272;26.932;2023-09-19T09:25:55;4.70;;;4.30;;
7965;SDS011;4028;43.272;26.932;2023-09-19T09:28:25;5.40;;;4.28;;
7965;SDS011;4028;43.272;26.932;2023-09-19T09:30:52;6.70;;;4.40;;
7965;SDS011;4028;43.272;26.932;2023-09-19T09:33:17;4.25;;;3.95;;
7965;SDS011;4028;43.272;26.932;2023-09-19T09:38:23;5.40;;;4.20;;
7965;SDS011;4028;43.272;26.932;2023-09-19T09:40:53;6.55;;;4.40;;
7965;SDS011;4028;43.272;26.932;2023-09-19T09:43:36;6.53;;;4.00;;
7965;SDS011;4028;43.272;26.932;2023-09-19T09:46:08;5.20;;;4.57;;
7965;SDS011;4028;43.272;26.932;2023-09-19T09:48:59;4.90;;;4.40;;
7965;SDS011;4028;43.272;26.932;2023-09-19T09:51:50;4.32;;;4.00;;
7965;SDS011;4028;43.272;26.932;2023-09-19T09:54:25;5.28;;;4.85;;
7965;SDS011;4028;43.272;26.932;2023-09-19T09:57:10;4.25;;;3.92;;
7965;SDS011;4028;43.272;26.932;2023-09-19T10:02:36;6.18;;;3.30;;
7965;SDS011;4028;43.272;26.932;2023-09-19T10:07:50;3.88;;;3.58;;
7965;SDS011;4028;43.272;26.932;2023-09-19T10:10:37;6.85;;;3.50;;
7965;SDS011;4028;43.272;26.932;2023-09-19T10:13:11;3.72;;;3.35;;
7965;SDS011;4028;43.272;26.932;2023-09-19T10:15:38;3.22;;;2.92;;
7965;SDS011;4028;43.272;26.932;2023-09-19T10:18:15;4.63;;;3.40;;
7965;SDS011;4028;43.272;26.932;2023-09-19T10:20:45;3.85;;;3.55;;
7965;SDS011;4028;43.272;26.932;2023-09-19T10:23:12;3.88;;;3.50;;
7965;SDS011;4028;43.272;26.932;2023-09-19T10:25:42;3.97;;;3.58;;
7965;SDS011;4028;43.272;26.932;2023-09-19T10:28:11;3.70;;;3.40;;
7965;SDS011;4028;43.272;26.932;2023-09-19T10:30:41;4.30;;;3.53;;
7965;SDS011;4028;43.272;26.932;2023-09-19T10:33:12;4.13;;;3.63;;
7965;SDS011;4028;43.272;26.932;2023-09-19T10:35:40;3.30;;;3.00;;
7965;SDS011;4028;43.272;26.932;2023-09-19T10:38:09;3.30;;;3.10;;
7965;SDS011;4028;43.272;26.932;2023-09-19T10:40:37;3.88;;;3.47;;
7965;SDS011;4028;43.272;26.932;2023-09-19T10:43:08;4.30;;;3.60;;
7965;SDS011;4028;43.272;26.932;2023-09-19T10:45:37;3.75;;;3.30;;
7965;SDS011;4028;43.272;26.932;2023-09-19T10:48:05;4.70;;;3.67;;
7965;SDS011;4028;43.272;26.932;2023-09-19T10:53:29;4.25;;;3.85;;
7965;SDS011;4028;43.272;26.932;2023-09-19T10:56:17;4.00;;;3.50;;
7965;SDS011;4028;43.272;26.932;2023-09-19T10:59:10;4.18;;;3.50;;
7965;SDS011;4028;43.272;26.932;2023-09-19T11:01:51;6.82;;;4.07;;
7965;SDS011;4028;43.272;26.932;2023-09-19T11:04:30;6.18;;;3.47;;
7965;SDS011;4028;43.272;26.932;2023-09-19T11:06:59;4.00;;;3.60;;
7965;SDS011;4028;43.272;26.932;2023-09-19T11:15:00;3.70;;;3.40;;
7965;SDS011;4028;43.272;26.932;2023-09-19T11:17:30;4.03;;;3.17;;
7965;SDS011;4028;43.272;26.932;2023-09-19T11:30:33;5.15;;;3.65;;
7965;SDS011;4028;43.272;26.932;2023-09-19T11:33:18;6.13;;;3.67;;
7965;SDS011;4028;43.272;26.932;2023-09-19T11:35:59;3.60;;;3.40;;
7965;SDS011;4028;43.272;26.932;2023-09-19T11:46:33;3.97;;;3.58;;
7965;SDS011;4028;43.272;26.932;2023-09-19T11:49:08;4.47;;;3.70;;
7965;SDS011;4028;43.272;26.932;2023-09-19T11:51:44;3.65;;;3.30;;
7965;SDS011;4028;43.272;26.932;2023-09-19T11:54:10;5.55;;;4.22;;
7965;SDS011;4028;43.272;26.932;2023-09-19T11:56:44;3.72;;;3.42;;
7965;SDS011;4028;43.272;26.932;2023-09-19T11:59:11;4.65;;;3.78;;
7965;SDS011;4028;43.272;26.932;2023-09-19T12:01:50;4.03;;;3.67;;
7965;SDS011;4028;43.272;26.932;2023-09-19T12:04:31;4.32;;;3.80;;
7965;SDS011;4028;43.272;26.932;2023-09-19T12:06:58;3.70;;;3.08;;
7965;SDS011;4028;43.272;26.932;2023-09-19T12:09:24;3.88;;;3.55;;
7965;SDS011;4028;43.272;26.932;2023-09-19T12:11:50;4.13;;;3.53;;
7965;SDS011;4028;43.272;26.932;2023-09-19T12:14:23;4.05;;;3.70;;
7965;SDS011;4028;43.272;26.932;2023-09-19T12:16:54;6.03;;;3.50;;
7965;SDS011;4028;43.272;26.932;2023-09-19T12:19:25;3.95;;;3.55;;
7965;SDS011;4028;43.272;26.932;2023-09-19T12:21:54;5.97;;;4.68;;
7965;SDS011;4028;43.272;26.932;2023-09-19T12:24:22;5.72;;;3.85;;
7965;SDS011;4028;43.272;26.932;2023-09-19T12:26:51;3.92;;;3.50;;
7965;SDS011;4028;43.272;26.932;2023-09-19T12:29:18;3.72;;;3.40;;
7965;SDS011;4028;43.272;26.932;2023-09-19T12:31:49;3.67;;;3.38;;
7965;SDS011;4028;43.272;26.932;2023-09-19T12:34:26;4.47;;;3.80;;
7965;SDS011;4028;43.272;26.932;2023-09-19T12:39:36;4.82;;;3.38;;
7965;SDS011;4028;43.272;26.932;2023-09-19T12:42:02;4.40;;;3.53;;
7965;SDS011;4028;43.272;26.932;2023-09-19T12:44:29;4.45;;;4.15;;
7965;SDS011;4028;43.272;26.932;2023-09-19T12:46:55;5.28;;;4.18;;
7965;SDS011;4028;43.272;26.932;2023-09-19T12:49:24;7.07;;;5.70;;
7965;SDS011;4028;43.272;26.932;2023-09-19T12:51:49;5.50;;;3.60;;
7965;SDS011;4028;43.272;26.932;2023-09-19T12:54:20;4.47;;;4.00;;
7965;SDS011;4028;43.272;26.932;2023-09-19T12:56:47;4.10;;;3.70;;
7965;SDS011;4028;43.272;26.932;2023-09-19T12:59:15;4.10;;;3.80;;
7965;SDS011;4028;43.272;26.932;2023-09-19T13:01:41;3.92;;;3.63;;
7965;SDS011;4028;43.272;26.932;2023-09-19T13:06:51;4.10;;;3.70;;
7965;SDS011;4028;43.272;26.932;2023-09-19T13:09:18;4.43;;;4.03;;
7965;SDS011;4028;43.272;26.932;2023-09-19T13:11:45;5.20;;;3.90;;
7965;SDS011;4028;43.272;26.932;2023-09-19T13:16:59;4.25;;;3.45;;
7965;SDS011;4028;43.272;26.932;2023-09-19T13:19:50;4.50;;;3.58;;
7965;SDS011;4028;43.272;26.932;2023-09-19T13:25:10;4.03;;;3.63;;
7965;SDS011;4028;43.272;26.932;2023-09-19T13:27:43;5.18;;;4.78;;
7965;SDS011;4028;43.272;26.932;2023-09-19T13:30:17;3.72;;;3.38;;
7965;SDS011;4028;43.272;26.932;2023-09-19T13:32:44;4.95;;;3.60;;
7965;SDS011;4028;43.272;26.932;2023-09-19T13:35:12;4.57;;;3.78;;
7965;SDS011;4028;43.272;26.932;2023-09-19T13:37:39;5.32;;;3.95;;
7965;SDS011;4028;43.272;26.932;2023-09-19T13:40:12;3.70;;;3.40;;
7965;SDS011;4028;43.272;26.932;2023-09-19T13:42:39;5.47;;;3.70;;
7965;SDS011;4028;43.272;26.932;2023-09-19T13:45:05;3.75;;;3.42;;
7965;SDS011;4028;43.272;26.932;2023-09-19T13:47:34;4.00;;;3.70;;
7965;SDS011;4028;43.272;26.932;2023-09-19T13:50:02;6.60;;;4.03;;
7965;SDS011;4028;43.272;26.932;2023-09-19T13:52:29;5.15;;;4.10;;
7965;SDS011;4028;43.272;26.932;2023-09-19T13:54:55;3.97;;;3.67;;
7965;SDS011;4028;43.272;26.932;2023-09-19T13:57:25;6.25;;;3.65;;
7965;SDS011;4028;43.272;26.932;2023-09-19T13:59:51;5.43;;;3.90;;
7965;SDS011;4028;43.272;26.932;2023-09-19T14:02:17;4.85;;;3.80;;
7965;SDS011;4028;43.272;26.932;2023-09-19T14:04:47;3.92;;;3.40;;
7965;SDS011;4028;43.272;26.932;2023-09-19T14:07:17;3.90;;;3.60;;
7965;SDS011;4028;43.272;26.932;2023-09-19T14:09:45;4.30;;;3.60;;
7965;SDS011;4028;43.272;26.932;2023-09-19T14:12:11;4.25;;;3.30;;
7965;SDS011;4028;43.272;26.932;2023-09-19T14:14:37;4.15;;;3.75;;
7965;SDS011;4028;43.272;26.932;2023-09-19T14:17:03;3.80;;;3.50;;
7965;SDS011;4028;43.272;26.932;2023-09-19T14:19:29;3.25;;;3.03;;
7965;SDS011;4028;43.272;26.932;2023-09-19T14:21:55;3.80;;;3.40;;
7965;SDS011;4028;43.272;26.932;2023-09-19T14:24:21;4.25;;;3.85;;
7965;SDS011;4028;43.272;26.932;2023-09-19T14:26:47;4.10;;;3.80;;
7965;SDS011;4028;43.272;26.932;2023-09-19T14:29:14;4.78;;;4.03;;
7965;SDS011;4028;43.272;26.932;2023-09-19T14:31:40;4.38;;;3.97;;
7965;SDS011;4028;43.272;26.932;2023-09-19T14:34:06;4.18;;;3.47;;
7965;SDS011;4028;43.272;26.932;2023-09-19T14:36:32;5.75;;;4.20;;
7965;SDS011;4028;43.272;26.932;2023-09-19T14:38:58;6.90;;;3.95;;
7965;SDS011;4028;43.272;26.932;2023-09-19T14:41:24;5.00;;;4.00;;
7965;SDS011;4028;43.272;26.932;2023-09-19T14:43:53;4.88;;;3.00;;
7965;SDS011;4028;43.272;26.932;2023-09-19T14:46:20;4.68;;;4.28;;
7965;SDS011;4028;43.272;26.932;2023-09-19T14:48:46;5.95;;;5.35;;
7965;SDS011;4028;43.272;26.932;2023-09-19T14:51:12;7.20;;;5.20;;
7965;SDS011;4028;43.272;26.932;2023-09-19T14:53:39;6.07;;;5.00;;
7965;SDS011;4028;43.272;26.932;2023-09-19T14:56:07;4.82;;;4.43;;
7965;SDS011;4028;43.272;26.932;2023-09-19T14:58:33;5.97;;;3.90;;
7965;SDS011;4028;43.272;26.932;2023-09-19T15:01:06;5.05;;;3.85;;
7965;SDS011;4028;43.272;26.932;2023-09-19T15:03:32;8.27;;;3.65;;
7965;SDS011;4028;43.272;26.932;2023-09-19T15:06:00;4.03;;;3.42;;
7965;SDS011;4028;43.272;26.932;2023-09-19T15:08:26;4.40;;;4.10;;
7965;SDS011;4028;43.272;26.932;2023-09-19T15:10:52;4.28;;;3.88;;
7965;SDS011;4028;43.272;26.932;2023-09-19T15:13:19;11.15;;;4.40;;
7965;SDS011;4028;43.272;26.932;2023-09-19T15:15:45;4.80;;;4.40;;
7965;SDS011;4028;43.272;26.932;2023-09-19T15:18:13;6.35;;;4.20;;
7965;SDS011;4028;43.272;26.932;2023-09-19T15:20:45;5.78;;;4.65;;
7965;SDS011;4028;43.272;26.932;2023-09-19T15:23:11;4.90;;;4.40;;
7965;SDS011;4028;43.272;26.932;2023-09-19T15:25:38;7.18;;;4.50;;
7965;SDS011;4028;43.272;26.932;2023-09-19T15:28:06;6.57;;;5.32;;
7965;SDS011;4028;43.272;26.932;2023-09-19T15:30:36;4.95;;;4.47;;
7965;SDS011;4028;43.272;26.932;2023-09-19T15:33:03;10.32;;;7.18;;
7965;SDS011;4028;43.272;26.932;2023-09-19T15:35:29;10.45;;;6.53;;
7965;SDS011;4028;43.272;26.932;2023-09-19T15:37:54;6.93;;;6.32;;
7965;SDS011;4028;43.272;26.932;2023-09-19T15:40:21;9.40;;;7.03;;
7965;SDS011;4028;43.272;26.932;2023-09-19T15:42:49;7.50;;;6.50;;
7965;SDS011;4028;43.272;26.932;2023-09-19T15:45:14;9.70;;;6.72;;
7965;SDS011;4028;43.272;26.932;2023-09-19T15:47:41;10.00;;;7.32;;
7965;SDS011;4028;43.272;26.932;2023-09-19T15:50:08;9.48;;;7.20;;
7965;SDS011;4028;43.272;26.932;2023-09-19T15:52:40;9.30;;;5.32;;
7965;SDS011;4028;43.272;26.932;2023-09-19T15:55:07;13.32;;;8.15;;
7965;SDS011;4028;43.272;26.932;2023-09-19T15:57:34;12.65;;;7.88;;
7965;SDS011;4028;43.272;26.932;2023-09-19T16:00:01;8.93;;;6.47;;
7965;SDS011;4028;43.272;26.932;2023-09-19T16:02:29;7.55;;;6.35;;
7965;SDS011;4028;43.272;26.932;2023-09-19T16:04:55;9.93;;;5.80;;
7965;SDS011;4028;43.272;26.932;2023-09-19T16:07:21;9.40;;;5.55;;
7965;SDS011;4028;43.272;26.932;2023-09-19T16:09:46;6.78;;;5.30;;
7965;SDS011;4028;43.272;26.932;2023-09-19T16:12:12;7.32;;;5.47;;